createdAt,value
2023-01-19T00:01:32.441Z,26.02
2023-01-19T00:04:00.001Z,24.80
2023-01-19T00:06:27.560Z,23.70
2023-01-19T00:08:55.057Z,21.90
2023-01-19T00:11:22.636Z,25.30
2023-01-19T00:13:50.825Z,23.87
2023-01-19T00:16:22.966Z,26.05
2023-01-19T00:18:52.369Z,27.52
2023-01-19T00:21:21.452Z,23.92
2023-01-19T00:23:51.076Z,24.20
2023-01-19T00:26:19.335Z,20.15
2023-01-19T00:28:47.169Z,26.45
2023-01-19T00:31:14.732Z,21.30
2023-01-19T00:33:43.623Z,25.50
2023-01-19T00:36:11.503Z,23.90
2023-01-19T00:38:39.648Z,20.90
2023-01-19T00:41:07.500Z,25.40
2023-01-19T00:43:35.050Z,24.52
2023-01-19T00:46:02.752Z,24.17
2023-01-19T00:48:30.726Z,23.95
2023-01-19T00:50:59.995Z,26.47
2023-01-19T00:53:29.079Z,24.00
2023-01-19T00:55:56.638Z,22.48
2023-01-19T00:58:24.190Z,21.52
2023-01-19T01:00:54.660Z,25.83
2023-01-19T01:03:28.006Z,20.27
2023-01-19T01:05:55.740Z,22.48
2023-01-19T01:08:25.103Z,24.92
2023-01-19T01:10:53.112Z,23.50
2023-01-19T01:13:21.931Z,20.38
2023-01-19T01:15:51.024Z,20.05
2023-01-19T01:18:18.562Z,19.48
2023-01-19T01:20:46.073Z,19.60
2023-01-19T01:23:14.022Z,23.17
2023-01-19T01:25:43.341Z,22.98
2023-01-19T01:28:11.020Z,23.47
2023-01-19T01:30:40.871Z,23.50
2023-01-19T01:33:09.259Z,20.70
2023-01-19T01:42:19.270Z,23.23
2023-01-19T01:44:51.128Z,24.17
2023-01-19T01:47:27.638Z,22.52
2023-01-19T01:50:01.973Z,19.50
2023-01-19T01:52:31.007Z,23.92
2023-01-19T01:54:59.198Z,22.97
2023-01-19T01:57:28.679Z,21.92
2023-01-19T01:59:58.235Z,22.42
2023-01-19T02:02:48.215Z,22.52
2023-01-19T02:05:18.454Z,22.83
2023-01-19T02:08:09.107Z,21.10
2023-01-19T02:10:54.539Z,22.63
2023-01-19T02:13:25.481Z,27.58
2023-01-19T02:15:55.939Z,22.15
2023-01-19T02:18:26.122Z,22.27
2023-01-19T02:21:00.511Z,22.07
2023-01-19T02:23:38.780Z,21.75
2023-01-19T02:26:09.420Z,22.63
2023-01-19T02:28:39.764Z,23.45
2023-01-19T02:31:07.640Z,23.58
2023-01-19T02:33:35.558Z,20.87
2023-01-19T02:36:03.821Z,21.25
2023-01-19T02:38:33.657Z,21.45
2023-01-19T02:41:03.179Z,19.95
2023-01-19T02:43:31.950Z,20.33
2023-01-19T02:45:59.569Z,19.27
2023-01-19T02:48:27.498Z,22.50
2023-01-19T02:50:57.717Z,21.55
2023-01-19T02:53:50.659Z,19.80
2023-01-19T02:56:45.543Z,20.67
2023-01-19T02:59:23.157Z,24.10
2023-01-19T03:02:09.751Z,23.73
2023-01-19T03:04:52.294Z,24.90
2023-01-19T03:07:29.042Z,22.15
2023-01-19T03:10:04.817Z,25.38
2023-01-19T03:12:40.612Z,24.13
2023-01-19T03:15:16.453Z,21.30
2023-01-19T03:17:46.331Z,20.55
2023-01-19T03:20:16.644Z,24.23
2023-01-19T03:22:45.442Z,24.10
2023-01-19T03:25:15.205Z,20.77
2023-01-19T03:27:44.910Z,23.40
2023-01-19T03:30:18.431Z,21.77
2023-01-19T03:32:50.736Z,20.88
2023-01-19T03:35:21.738Z,21.55
2023-01-19T03:37:52.979Z,21.10
2023-01-19T03:40:23.184Z,24.90
2023-01-19T03:42:51.357Z,23.63
2023-01-19T03:45:19.636Z,24.38
2023-01-19T03:47:47.395Z,23.85
2023-01-19T03:50:24.020Z,21.00
2023-01-19T03:53:02.194Z,28.45
2023-01-19T03:55:31.583Z,23.98
2023-01-19T03:57:59.135Z,21.20
2023-01-19T04:00:27.089Z,21.23
2023-01-19T04:02:55.388Z,24.40
2023-01-19T04:05:23.463Z,23.88
2023-01-19T04:07:51.373Z,23.75
2023-01-19T04:10:19.929Z,23.02
2023-01-19T04:12:49.368Z,21.38
2023-01-19T04:15:18.459Z,21.13
2023-01-19T04:17:45.985Z,24.15
2023-01-19T04:20:13.882Z,26.52
2023-01-19T04:22:42.499Z,23.92
2023-01-19T04:25:11.420Z,27.85
2023-01-19T04:27:39.012Z,26.40
2023-01-19T04:30:09.947Z,25.23
2023-01-19T04:32:37.515Z,24.77
2023-01-19T04:35:05.796Z,25.25
2023-01-19T04:37:33.377Z,23.83
2023-01-19T04:40:00.904Z,24.03
2023-01-19T04:42:28.504Z,24.13
2023-01-19T04:44:56.007Z,25.55
2023-01-19T04:47:24.894Z,26.08
2023-01-19T04:49:52.415Z,25.58
2023-01-19T04:52:20.246Z,29.20
2023-01-19T04:54:47.735Z,26.45
2023-01-19T04:57:15.259Z,28.45
2023-01-19T04:59:42.826Z,23.88
2023-01-19T05:02:11.297Z,26.73
2023-01-19T05:04:40.359Z,26.40
2023-01-19T05:07:07.916Z,26.90
2023-01-19T05:09:35.467Z,27.98
2023-01-19T05:12:03.039Z,25.60
2023-01-19T05:14:31.073Z,28.05
2023-01-19T05:16:58.699Z,26.03
2023-01-19T05:19:26.444Z,22.80
2023-01-19T05:21:55.353Z,25.70
2023-01-19T05:24:22.959Z,27.95
2023-01-19T05:26:50.517Z,25.58
2023-01-19T05:29:18.031Z,27.00
2023-01-19T05:31:45.552Z,26.27
2023-01-19T05:34:14.348Z,25.85
2023-01-19T05:36:42.244Z,26.85
2023-01-19T05:39:11.412Z,24.45
2023-01-19T05:41:39.002Z,26.27
2023-01-19T05:44:06.603Z,29.55
2023-01-19T05:46:34.403Z,26.75
2023-01-19T05:49:04.122Z,24.80
2023-01-19T05:51:35.025Z,26.00
2023-01-19T05:54:02.540Z,23.53
2023-01-19T05:56:31.452Z,29.40
2023-01-19T05:58:58.984Z,23.45
2023-01-19T06:01:27.114Z,29.23
2023-01-19T06:03:55.341Z,24.50
2023-01-19T06:06:23.513Z,28.97
2023-01-19T06:08:51.107Z,28.85
2023-01-19T06:11:18.688Z,31.10
2023-01-19T06:13:47.714Z,28.52
2023-01-19T06:16:15.608Z,28.10
2023-01-19T06:18:43.210Z,28.97
2023-01-19T06:21:13.505Z,37.70
2023-01-19T06:23:41.295Z,28.65
2023-01-19T06:26:09.122Z,27.45
2023-01-19T06:28:36.682Z,27.45
2023-01-19T06:31:06.320Z,28.57
2023-01-19T06:33:33.898Z,30.13
2023-01-19T06:36:01.628Z,27.73
2023-01-19T06:38:29.216Z,28.30
2023-01-19T06:40:59.475Z,30.25
2023-01-19T06:43:27.485Z,30.33
2023-01-19T06:45:56.020Z,27.65
2023-01-19T06:48:25.024Z,28.75
2023-01-19T06:50:52.523Z,26.48
2023-01-19T06:53:22.110Z,27.42
2023-01-19T06:55:49.728Z,26.20
2023-01-19T06:58:17.468Z,27.75
2023-01-19T07:00:45.123Z,26.75
2023-01-19T07:03:20.487Z,24.08
2023-01-19T07:05:52.395Z,25.67
2023-01-19T07:08:20.314Z,26.83
2023-01-19T07:11:25.977Z,24.48
2023-01-19T07:13:36.179Z,24.42
2023-01-19T07:16:07.371Z,26.17
2023-01-19T07:18:35.956Z,22.42
2023-01-19T07:21:05.946Z,24.67
2023-01-19T07:23:33.992Z,22.98
2023-01-19T07:26:02.402Z,26.98
2023-01-19T07:28:29.977Z,26.25
2023-01-19T07:30:58.006Z,27.55
2023-01-19T07:33:26.060Z,29.77
2023-01-19T07:35:54.692Z,27.40
2023-01-19T07:38:23.613Z,27.77
2023-01-19T07:40:51.188Z,28.90
2023-01-19T07:43:19.354Z,28.67
2023-01-19T07:45:47.058Z,29.50
2023-01-19T07:48:14.640Z,29.52
2023-01-19T07:50:42.202Z,26.25
2023-01-19T07:53:11.824Z,32.40
2023-01-19T07:55:40.954Z,37.58
2023-01-19T07:58:08.492Z,28.07
2023-01-19T08:00:37.860Z,28.20
2023-01-19T08:03:06.320Z,28.17
2023-01-19T08:05:34.736Z,27.60
2023-01-19T08:08:02.322Z,32.90
2023-01-19T08:10:30.087Z,34.17
2023-01-19T08:12:59.454Z,33.58
2023-01-19T08:15:27.682Z,32.22
2023-01-19T08:17:57.051Z,29.88
2023-01-19T08:20:25.219Z,30.67
2023-01-19T08:22:59.729Z,29.03
2023-01-19T08:25:32.637Z,30.27
2023-01-19T08:28:02.381Z,29.73
2023-01-19T08:30:30.330Z,31.73
2023-01-19T08:33:04.121Z,28.80
2023-01-19T08:35:31.996Z,28.57
2023-01-19T08:38:01.482Z,24.35
2023-01-19T08:40:29.770Z,29.88
2023-01-19T08:43:03.617Z,28.23
2023-01-19T08:45:31.906Z,29.90
2023-01-19T08:47:59.980Z,28.87
2023-01-19T08:50:27.841Z,28.67
2023-01-19T08:52:56.740Z,32.85
2023-01-19T08:55:24.404Z,32.03
2023-01-19T08:57:53.561Z,29.65
2023-01-19T09:00:22.914Z,27.27
2023-01-19T09:02:51.089Z,27.35
2023-01-19T09:05:18.921Z,25.65
2023-01-19T09:07:47.973Z,27.73
2023-01-19T09:10:16.090Z,28.15
2023-01-19T09:12:44.810Z,30.63
2023-01-19T09:15:14.070Z,27.20
2023-01-19T09:17:43.111Z,27.80
2023-01-19T09:20:11.717Z,29.40
2023-01-19T09:22:39.564Z,27.52
2023-01-19T09:25:08.222Z,28.33
2023-01-19T09:27:35.781Z,27.55
2023-01-19T09:30:03.721Z,29.23
2023-01-19T09:32:31.282Z,26.30
2023-01-19T09:35:00.123Z,26.13
2023-01-19T09:37:27.675Z,26.23
2023-01-19T09:39:55.459Z,27.38
2023-01-19T09:42:33.265Z,28.08
2023-01-19T09:45:02.217Z,28.88
2023-01-19T09:47:33.238Z,27.15
2023-01-19T09:50:06.676Z,28.20
2023-01-19T09:52:40.473Z,28.70
2023-01-19T09:55:20.449Z,28.67
2023-01-19T09:57:48.056Z,27.80
2023-01-19T10:00:17.329Z,30.08
2023-01-19T10:02:49.650Z,29.10
2023-01-19T10:05:27.775Z,30.30
2023-01-19T10:08:08.498Z,25.13
2023-01-19T10:10:37.419Z,28.00
2023-01-19T10:13:22.445Z,25.92
2023-01-19T10:15:57.478Z,37.97
2023-01-19T10:18:30.978Z,29.95
2023-01-19T10:21:05.984Z,27.48
2023-01-19T10:23:42.101Z,26.67
2023-01-19T10:26:16.491Z,26.58
2023-01-19T10:28:46.362Z,26.83
2023-01-19T10:31:15.193Z,28.48
2023-01-19T10:33:42.833Z,30.50
2023-01-19T10:36:20.088Z,27.13
2023-01-19T10:38:48.578Z,29.85
2023-01-19T10:41:22.119Z,25.93
2023-01-19T10:43:50.854Z,29.08
2023-01-19T10:46:23.129Z,23.58
2023-01-19T10:48:52.805Z,25.08
2023-01-19T10:51:22.058Z,27.83
2023-01-19T10:53:59.423Z,24.97
2023-01-19T10:56:31.697Z,27.58
2023-01-19T10:59:01.552Z,25.75
2023-01-19T11:01:31.112Z,26.13
2023-01-19T11:04:05.440Z,27.83
2023-01-19T11:06:35.647Z,27.27
2023-01-19T11:09:18.536Z,28.17
2023-01-19T11:11:50.079Z,25.80
2023-01-19T11:14:21.500Z,27.73
2023-01-19T11:16:52.588Z,27.58
2023-01-19T11:19:28.169Z,24.83
2023-01-19T11:22:15.991Z,24.25
2023-01-19T11:24:45.023Z,23.08
2023-01-19T11:27:17.995Z,24.67
2023-01-19T11:29:49.171Z,24.40
2023-01-19T11:32:22.928Z,23.43
2023-01-19T11:34:50.932Z,24.88
2023-01-19T11:37:30.612Z,28.25
2023-01-19T11:40:00.146Z,27.35
2023-01-19T11:42:30.977Z,27.05
2023-01-19T11:45:03.839Z,24.07
2023-01-19T11:47:36.918Z,25.70
2023-01-19T11:50:13.065Z,26.20
2023-01-19T11:52:46.027Z,25.05
2023-01-19T11:55:22.305Z,25.10
2023-01-19T11:57:54.315Z,25.40
2023-01-19T12:00:28.631Z,35.05
2023-01-19T12:03:02.802Z,26.40
2023-01-19T12:05:34.268Z,23.17
2023-01-19T12:08:07.781Z,26.40
2023-01-19T12:10:41.448Z,24.57
2023-01-19T12:13:19.522Z,25.15
2023-01-19T12:15:48.841Z,24.63
2023-01-19T12:18:21.789Z,22.42
2023-01-19T12:20:52.418Z,24.90
2023-01-19T12:23:34.517Z,24.93
2023-01-19T12:26:19.602Z,25.00
2023-01-19T12:28:49.459Z,24.00
2023-01-19T12:31:19.000Z,23.15
2023-01-19T12:33:47.706Z,24.40
2023-01-19T12:36:37.657Z,26.77
2023-01-19T12:39:13.470Z,25.02
2023-01-19T12:41:42.497Z,25.30
2023-01-19T12:44:25.191Z,29.35
2023-01-19T12:46:57.276Z,25.05
2023-01-19T12:49:28.130Z,24.37
2023-01-19T12:52:13.792Z,25.80
2023-01-19T12:54:51.591Z,26.17
2023-01-19T12:57:23.950Z,27.48
2023-01-19T12:59:57.208Z,21.45
2023-01-19T13:02:53.523Z,20.63
2023-01-19T13:05:47.434Z,25.75
2023-01-19T13:08:25.629Z,22.70
2023-01-19T13:11:17.761Z,20.65
2023-01-19T13:14:04.322Z,23.25
2023-01-19T13:16:56.832Z,24.50
2023-01-19T13:19:35.940Z,21.67
2023-01-19T13:23:04.419Z,22.38
2023-01-19T13:25:35.684Z,24.45
2023-01-19T13:28:10.267Z,22.88
2023-01-19T13:30:40.852Z,22.40
2023-01-19T13:33:18.597Z,20.95
2023-01-19T13:35:52.658Z,22.25
2023-01-19T13:38:20.577Z,20.40
2023-01-19T13:40:48.474Z,18.92
2023-01-19T13:43:21.607Z,20.53
2023-01-19T13:45:53.382Z,21.13
2023-01-19T13:48:23.222Z,20.77
2023-01-19T13:51:05.115Z,19.83
2023-01-19T13:53:34.107Z,24.52
2023-01-19T13:56:20.485Z,20.07
2023-01-19T13:59:12.695Z,23.73
2023-01-19T14:01:42.551Z,20.35
2023-01-19T14:04:32.424Z,20.17
2023-01-19T14:07:03.329Z,20.35
2023-01-19T14:09:31.086Z,21.63
2023-01-19T14:12:08.841Z,22.65
2023-01-19T14:14:37.973Z,20.55
2023-01-19T14:17:05.882Z,22.05
2023-01-19T14:19:49.028Z,18.00
2023-01-19T14:22:16.680Z,19.77
2023-01-19T14:24:44.235Z,17.77
2023-01-19T14:27:20.355Z,18.55
2023-01-19T14:29:50.582Z,22.38
2023-01-19T14:32:20.266Z,17.98
2023-01-19T14:34:50.080Z,19.37
2023-01-19T14:37:28.679Z,19.15
2023-01-19T14:39:59.933Z,21.63
2023-01-19T14:42:31.753Z,19.63
2023-01-19T14:45:03.780Z,19.48
2023-01-19T14:47:36.606Z,20.87
2023-01-19T14:50:10.680Z,18.98
2023-01-19T14:52:41.452Z,16.75
2023-01-19T14:55:20.142Z,16.25
2023-01-19T14:57:47.749Z,12.77
2023-01-19T15:00:18.747Z,13.60
2023-01-19T15:02:46.793Z,14.55
2023-01-19T15:05:14.862Z,13.95
2023-01-19T15:07:45.473Z,16.08
2023-01-19T15:10:18.846Z,14.43
2023-01-19T15:12:46.662Z,19.87
2023-01-19T15:15:18.091Z,17.98
2023-01-19T15:17:46.025Z,20.73
2023-01-19T15:20:18.981Z,19.23
2023-01-19T15:22:47.136Z,16.58
2023-01-19T15:25:16.066Z,16.20
2023-01-19T15:27:44.988Z,17.55
2023-01-19T15:30:21.162Z,17.77
2023-01-19T15:32:48.748Z,17.42
2023-01-19T15:35:18.533Z,17.50
2023-01-19T15:37:46.303Z,19.00
2023-01-19T15:40:14.654Z,17.17
2023-01-19T15:42:42.729Z,16.38
2023-01-19T15:45:34.444Z,16.30
2023-01-19T15:48:04.936Z,15.70
2023-01-19T15:50:32.951Z,15.97
2023-01-19T15:53:00.522Z,16.35
2023-01-19T15:55:28.063Z,18.15
2023-01-19T15:58:01.163Z,16.05
2023-01-19T16:00:29.675Z,16.58
2023-01-19T16:02:59.143Z,12.23
2023-01-19T16:05:41.510Z,14.55
2023-01-19T16:08:09.807Z,14.75
2023-01-19T16:10:37.843Z,15.45
2023-01-19T16:13:05.501Z,14.02
2023-01-19T16:15:35.666Z,16.07
2023-01-19T16:18:05.171Z,12.60
2023-01-19T16:20:33.212Z,11.45
2023-01-19T16:23:14.513Z,13.02
2023-01-19T16:25:42.875Z,11.57
2023-01-19T16:28:10.500Z,16.77
2023-01-19T16:30:38.073Z,12.00
2023-01-19T16:33:08.324Z,12.27
2023-01-19T16:35:35.853Z,11.70
2023-01-19T16:38:03.382Z,10.20
2023-01-19T16:40:30.975Z,13.50
2023-01-19T16:42:58.804Z,21.42
2023-01-19T16:45:26.466Z,19.48
2023-01-19T16:47:54.064Z,17.40
2023-01-19T16:50:22.904Z,11.45
2023-01-19T16:52:51.274Z,10.80
2023-01-19T16:55:18.905Z,12.35
2023-01-19T16:57:46.590Z,11.45
2023-01-19T17:00:15.057Z,13.60
2023-01-19T17:02:43.133Z,11.38
2023-01-19T17:05:11.266Z,14.27
2023-01-19T17:07:40.336Z,12.75
2023-01-19T17:10:09.803Z,10.38
2023-01-19T17:12:37.594Z,13.98
2023-01-19T17:15:05.978Z,11.38
2023-01-19T17:17:34.868Z,25.77
2023-01-19T17:20:03.382Z,25.88
2023-01-19T17:22:30.892Z,32.33
2023-01-19T17:24:59.768Z,20.20
2023-01-19T17:27:27.334Z,17.42
2023-01-19T17:29:55.018Z,14.50
2023-01-19T17:32:22.569Z,12.45
2023-01-19T17:34:50.435Z,12.35
2023-01-19T17:37:18.006Z,9.93
2023-01-19T17:39:45.512Z,10.65
2023-01-19T17:42:14.486Z,7.83
2023-01-19T17:44:42.815Z,13.85
2023-01-19T17:47:10.363Z,9.40
2023-01-19T17:49:37.994Z,7.68
2023-01-19T17:52:05.982Z,8.82
2023-01-19T17:54:33.817Z,11.57
2023-01-19T17:57:01.362Z,8.75
2023-01-19T17:59:30.318Z,12.18
2023-01-19T18:01:57.870Z,11.05
2023-01-19T18:04:25.425Z,10.55
2023-01-19T18:06:52.942Z,10.03
2023-01-19T18:09:20.476Z,13.02
2023-01-19T18:11:48.020Z,13.65
2023-01-19T18:14:15.588Z,17.38
2023-01-19T18:16:59.541Z,16.33
2023-01-19T18:19:27.236Z,21.30
2023-01-19T18:21:54.837Z,10.07
2023-01-19T18:24:22.416Z,13.95
2023-01-19T18:26:49.942Z,14.05
2023-01-19T18:29:19.204Z,10.77
2023-01-19T18:31:46.816Z,9.40
2023-01-19T18:34:15.665Z,14.32
2023-01-19T18:36:43.264Z,10.57
2023-01-19T18:39:10.884Z,10.52
2023-01-19T18:41:41.606Z,12.70
2023-01-19T18:44:09.800Z,7.20
2023-01-19T18:46:37.597Z,11.82
2023-01-19T18:49:06.007Z,10.93
2023-01-19T18:51:34.891Z,9.60
2023-01-19T18:54:02.418Z,10.90
2023-01-19T18:56:29.943Z,10.67
2023-01-19T18:58:57.486Z,11.88
2023-01-19T19:01:27.150Z,9.38
2023-01-19T19:03:55.608Z,9.48
2023-01-19T19:06:24.010Z,9.32
2023-01-19T19:08:54.468Z,9.10
2023-01-19T19:11:23.861Z,10.50
2023-01-19T19:13:53.653Z,11.02
2023-01-19T19:16:21.255Z,10.50
2023-01-19T19:18:49.803Z,13.10
2023-01-19T19:21:18.981Z,15.83
2023-01-19T19:23:51.053Z,11.65
2023-01-19T19:26:20.501Z,12.38
2023-01-19T19:28:48.239Z,13.27
2023-01-19T19:31:17.942Z,10.93
2023-01-19T19:33:45.540Z,9.30
2023-01-19T19:36:13.376Z,7.43
2023-01-19T19:38:42.718Z,9.65
2023-01-19T19:41:13.775Z,14.73
2023-01-19T19:43:43.001Z,8.80
2023-01-19T19:46:13.427Z,12.30
2023-01-19T19:48:41.852Z,11.50
2023-01-19T19:51:18.018Z,8.50
2023-01-19T19:53:46.260Z,9.57
2023-01-19T19:56:14.046Z,10.80
2023-01-19T19:58:44.070Z,9.90
2023-01-19T20:01:13.333Z,10.85
2023-01-19T20:03:41.008Z,9.18
2023-01-19T20:06:10.366Z,8.73
2023-01-19T20:08:37.964Z,9.77
2023-01-19T20:11:07.559Z,11.97
2023-01-19T20:13:35.693Z,14.90
2023-01-19T20:16:05.795Z,11.35
2023-01-19T20:18:34.134Z,10.02
2023-01-19T20:21:01.683Z,10.38
2023-01-19T20:23:29.279Z,5.30
2023-01-19T20:25:56.812Z,5.72
2023-01-19T20:28:24.402Z,16.33
2023-01-19T20:30:51.949Z,6.43
2023-01-19T20:33:20.871Z,16.67
2023-01-19T20:35:48.505Z,7.10
2023-01-19T20:38:16.047Z,7.85
2023-01-19T20:40:43.580Z,9.50
2023-01-19T20:43:11.101Z,13.80
2023-01-19T20:45:38.662Z,11.90
2023-01-19T20:48:06.418Z,9.93
2023-01-19T20:50:35.328Z,9.60
2023-01-19T20:53:02.841Z,11.77
2023-01-19T20:55:30.406Z,9.52
2023-01-19T20:57:57.963Z,5.22
2023-01-19T21:00:26.643Z,6.53
2023-01-19T21:02:54.219Z,9.65
2023-01-19T21:05:21.769Z,6.65
2023-01-19T21:07:51.106Z,7.82
2023-01-19T21:10:18.715Z,7.03
2023-01-19T21:12:46.227Z,7.43
2023-01-19T21:15:14.005Z,6.28
2023-01-19T21:17:43.144Z,10.43
2023-01-19T21:20:13.171Z,7.30
2023-01-19T21:22:40.865Z,9.50
2023-01-19T21:25:10.532Z,9.83
2023-01-19T21:27:38.113Z,5.60
2023-01-19T21:30:06.550Z,5.93
2023-01-19T21:32:34.137Z,5.63
2023-01-19T21:35:01.687Z,8.57
2023-01-19T21:37:30.346Z,7.90
2023-01-19T21:39:58.039Z,7.00
2023-01-19T21:42:26.963Z,10.05
2023-01-19T21:44:54.486Z,7.03
2023-01-19T21:47:22.052Z,5.72
2023-01-19T21:49:49.627Z,5.87
2023-01-19T21:52:17.200Z,10.60
2023-01-19T21:54:44.786Z,7.35
2023-01-19T21:57:15.083Z,7.88
2023-01-19T21:59:43.936Z,11.77
2023-01-19T22:02:13.382Z,8.10
2023-01-19T22:04:41.514Z,7.38
2023-01-19T22:07:09.120Z,8.90
2023-01-19T22:09:36.847Z,11.05
2023-01-19T22:12:04.615Z,4.53
2023-01-19T22:14:32.196Z,6.37
2023-01-19T22:17:01.092Z,8.18
2023-01-19T22:19:28.687Z,4.40
2023-01-19T22:21:56.223Z,5.25
2023-01-19T22:24:23.742Z,10.07
2023-01-19T22:26:51.322Z,8.07
2023-01-19T22:29:18.831Z,6.47
2023-01-19T22:31:46.901Z,8.38
2023-01-19T22:34:17.052Z,6.72
2023-01-19T22:36:44.789Z,5.03
2023-01-19T22:39:13.634Z,9.03
2023-01-19T22:41:43.115Z,7.10
2023-01-19T22:44:13.556Z,36.15
2023-01-19T22:46:41.379Z,5.65
2023-01-19T22:49:10.940Z,7.00
2023-01-19T22:51:39.825Z,7.40
2023-01-19T22:54:08.061Z,7.95
2023-01-19T22:56:37.624Z,7.85
2023-01-19T22:59:06.071Z,6.68
2023-01-19T23:01:35.398Z,11.85
2023-01-19T23:04:04.229Z,9.33
2023-01-19T23:06:33.262Z,8.90
2023-01-19T23:09:04.572Z,10.07
2023-01-19T23:11:35.955Z,8.02
2023-01-19T23:14:04.663Z,12.60
2023-01-19T23:16:32.204Z,9.33
2023-01-19T23:19:00.062Z,14.80
2023-01-19T23:21:29.551Z,10.63
2023-01-19T23:23:58.397Z,8.27
2023-01-19T23:26:27.765Z,14.38
2023-01-19T23:28:57.025Z,10.77
2023-01-19T23:31:26.832Z,9.32
2023-01-19T23:33:56.206Z,11.77
2023-01-19T23:36:25.468Z,11.32
2023-01-19T23:38:54.547Z,12.27
2023-01-19T23:41:22.940Z,11.90
2023-01-19T23:43:52.123Z,10.52
2023-01-19T23:46:20.533Z,12.55
2023-01-19T23:48:48.734Z,7.05
2023-01-19T23:51:18.571Z,13.32
2023-01-19T23:53:47.044Z,11.03
2023-01-19T23:56:17.391Z,8.75
2023-01-19T23:58:45.702Z,11.63
